Time;durP1;ratioP1;P1;durP2;ratioP2;P2;SDS_P1;SDS_P2;PMS_P1;PMS_P2;Temp;Humidity;BMP_temperature;BMP_pressure;BME280_temperature;BME280_humidity;BME280_pressure;Samples;Min_cycle;Max_cycle;Signal;HPM_P1;HPM_P2
2022/09/22 00:01:32;;;;;;;6.47;5.20;;;;;;;11.19;81.63;94574.06;1648760;86;20956;-57
2022/09/22 00:04:05;;;;;;;9.43;6.15;;;;;;;11.21;82.15;94582.63;1648819;86;21171;-56
2022/09/22 00:06:37;;;;;;;14.70;6.33;;;;;;;11.28;82.25;94576.23;1638988;86;21133;-57
2022/09/22 00:09:07;;;;;;;15.65;7.20;;;;;;;11.36;81.89;94569.20;1630105;86;20955;-56
2022/09/22 00:11:39;;;;;;;11.15;6.85;;;;;;;11.40;81.31;94570.44;1649983;86;21152;-57
2022/09/22 00:14:14;;;;;;;10.65;6.22;;;;;;;11.40;81.44;94569.06;1645432;86;21079;-56
2022/09/22 00:16:47;;;;;;;7.37;5.37;;;;;;;11.42;81.17;94576.26;1622333;86;21247;-57
2022/09/22 00:19:19;;;;;;;9.23;5.47;;;;;;;11.41;81.50;94572.75;1647821;87;21439;-57
2022/09/22 00:21:47;;;;;;;15.90;8.53;;;;;;;11.45;81.60;94571.98;1623727;86;21106;-57
2022/09/22 00:24:14;;;;;;;12.85;7.85;;;;;;;11.53;81.33;94566.32;1646584;87;20956;-58
2022/09/22 00:26:43;;;;;;;13.80;6.58;;;;;;;11.62;81.27;94567.76;1627617;86;21484;-58
2022/09/22 00:29:10;;;;;;;9.13;6.65;;;;;;;11.70;80.71;94567.59;1646931;86;22114;-57
2022/09/22 00:31:40;;;;;;;9.53;5.08;;;;;;;11.74;80.44;94566.83;1640765;85;21674;-57
2022/09/22 00:34:08;;;;;;;8.63;5.97;;;;;;;11.75;79.82;94559.34;1646337;86;21027;-58
2022/09/22 00:36:36;;;;;;;23.35;9.40;;;;;;;11.64;79.74;94555.66;1647011;86;21111;-56
2022/09/22 00:39:03;;;;;;;21.27;9.38;;;;;;;11.52;80.14;94560.66;1648541;86;21166;-56
2022/09/22 00:41:39;;;;;;;13.28;7.22;;;;;;;11.44;80.71;94555.30;1646044;85;22059;-56
2022/09/22 00:44:27;;;;;;;9.83;6.75;;;;;;;11.42;81.15;94556.97;1639198;86;20989;-57
2022/09/22 00:47:24;;;;;;;8.73;6.12;;;;;;;11.43;81.19;94564.80;1636482;86;21011;-57
2022/09/22 00:50:09;;;;;;;10.13;6.53;;;;;;;11.40;81.14;94558.83;1624605;86;21542;-58
2022/09/22 00:52:57;;;;;;;11.78;7.00;;;;;;;11.41;81.75;94556.22;1636267;86;20920;-57
2022/09/22 00:55:36;;;;;;;8.93;6.33;;;;;;;11.55;81.72;94551.47;1638243;85;21862;-56
2022/09/22 00:58:06;;;;;;;10.35;6.25;;;;;;;11.62;80.97;94555.36;1658637;84;21003;-57
2022/09/22 01:00:34;;;;;;;10.48;6.47;;;;;;;11.69;80.77;94552.92;1599820;87;21228;-56
2022/09/22 01:03:04;;;;;;;8.65;6.85;;;;;;;11.66;80.24;94553.21;1638251;85;21050;-57
2022/09/22 01:05:32;;;;;;;15.08;8.00;;;;;;;11.67;80.55;94554.73;1651811;85;21436;-57
2022/09/22 01:08:01;;;;;;;45.98;14.90;;;;;;;11.72;80.41;94552.74;1651711;86;21297;-56
2022/09/22 01:10:28;;;;;;;23.95;10.80;;;;;;;11.67;80.19;94553.36;1656342;86;20992;-57
2022/09/22 01:13:19;;;;;;;19.57;8.88;;;;;;;11.59;80.14;94550.77;1652435;85;21001;-57
2022/09/22 01:16:08;;;;;;;12.88;7.40;;;;;;;11.49;80.13;94554.69;1644510;86;21609;-57
2022/09/22 01:18:52;;;;;;;9.35;6.28;;;;;;;11.36;80.64;94545.79;1650640;85;21068;-57
2022/09/22 01:21:32;;;;;;;10.57;5.97;;;;;;;11.43;81.07;94547.48;1650401;85;21165;-58
2022/09/22 01:24:19;;;;;;;6.12;5.17;;;;;;;11.54;80.62;94551.95;1665051;85;21679;-57
2022/09/22 01:27:04;;;;;;;8.75;5.50;;;;;;;11.51;80.23;94546.73;1656126;85;21555;-58
2022/09/22 01:30:18;;;;;;;6.40;5.45;;;;;;;11.50;80.30;94552.09;1640945;85;21114;-56
2022/09/22 01:33:21;;;;;;;8.45;6.05;;;;;;;11.51;80.48;94548.11;1650082;85;20991;-56
2022/09/22 01:36:06;;;;;;;8.33;5.80;;;;;;;11.44;80.41;94556.69;1646985;85;21230;-57
2022/09/22 01:38:54;;;;;;;9.43;6.53;;;;;;;11.42;80.95;94546.73;1638699;86;21125;-58
2022/09/22 01:41:33;;;;;;;12.13;6.30;;;;;;;11.45;80.62;94549.95;1647270;86;21058;-58
2022/09/22 01:44:03;;;;;;;11.25;6.67;;;;;;;11.37;80.43;94545.94;1642478;85;21011;-57
2022/09/22 01:46:37;;;;;;;30.48;9.63;;;;;;;11.38;81.22;94555.73;1650983;84;21063;-57
2022/09/22 01:49:07;;;;;;;46.70;12.90;;;;;;;11.39;81.04;94558.64;1620751;86;21278;-56
2022/09/22 01:51:46;;;;;;;31.50;9.75;;;;;;;11.31;81.27;94551.91;1642705;86;21053;-57
2022/09/22 01:54:27;;;;;;;12.75;4.97;;;;;;;11.29;81.65;94558.48;1637233;85;21015;-56
2022/09/22 01:56:59;;;;;;;7.22;4.25;;;;;;;11.34;82.11;94562.01;1616627;86;21031;-57
2022/09/22 01:59:28;;;;;;;5.60;3.85;;;;;;;11.37;81.93;94555.58;1643293;85;21070;-58
2022/09/22 02:02:00;;;;;;;19.75;7.47;;;;;;;11.34;81.92;94559.25;1642767;86;22961;-56
2022/09/22 02:04:36;;;;;;;17.57;7.30;;;;;;;11.33;82.10;94552.22;1663538;85;21052;-57
2022/09/22 02:07:14;;;;;;;27.87;8.05;;;;;;;11.26;81.53;94558.02;1650551;86;20974;-58
2022/09/22 02:09:42;;;;;;;15.03;6.60;;;;;;;11.19;82.14;94554.16;1646645;86;21056;-56
2022/09/22 02:12:09;;;;;;;15.83;6.37;;;;;;;11.21;81.99;94549.59;1647249;86;21043;-57
2022/09/22 02:14:36;;;;;;;13.85;5.53;;;;;;;11.20;82.07;94552.19;1652050;85;21165;-57
2022/09/22 02:17:04;;;;;;;8.05;4.65;;;;;;;11.22;82.35;94550.53;1649937;85;21154;-57
2022/09/22 02:19:38;;;;;;;6.47;4.62;;;;;;;11.29;82.62;94550.22;1639472;86;21032;-56
2022/09/22 02:22:07;;;;;;;4.58;4.17;;;;;;;11.36;82.24;94553.30;1660652;86;20950;-57
2022/09/22 02:24:43;;;;;;;4.35;3.75;;;;;;;11.41;82.22;94553.47;1656335;86;20995;-57
2022/09/22 02:27:24;;;;;;;6.00;3.85;;;;;;;11.47;82.47;94558.52;1656344;85;21236;-57
2022/09/22 02:29:52;;;;;;;7.58;4.83;;;;;;;11.60;82.15;94553.67;1656155;84;21130;-56
2022/09/22 02:32:19;;;;;;;16.62;7.08;;;;;;;11.72;81.55;94552.74;1646062;85;21074;-57
2022/09/22 02:34:46;;;;;;;12.55;5.35;;;;;;;11.67;80.61;94551.98;1641948;85;20991;-55
2022/09/22 02:38:03;;;;;;;8.73;5.10;;;;;;;11.56;80.42;94554.41;1651747;86;21214;-57
2022/09/22 02:40:47;;;;;;;8.05;5.25;;;;;;;11.52;80.72;94547.52;1643790;85;21539;-56
2022/09/22 02:43:23;;;;;;;8.38;4.33;;;;;;;11.44;81.13;94552.55;1659372;86;20976;-57
2022/09/22 02:46:03;;;;;;;6.97;4.95;;;;;;;11.46;81.00;94553.45;1661964;85;21083;-56
2022/09/22 02:48:36;;;;;;;8.25;5.10;;;;;;;11.41;81.02;94550.72;1654930;85;21044;-57
2022/09/22 02:51:04;;;;;;;7.43;4.67;;;;;;;11.33;80.94;94549.45;1623930;86;21005;-56
2022/09/22 02:53:33;;;;;;;9.23;4.92;;;;;;;11.32;81.26;94547.93;1647648;85;21221;-56
2022/09/22 02:56:02;;;;;;;19.73;8.30;;;;;;;11.38;81.70;94543.34;1658481;86;21055;-56
2022/09/22 02:58:30;;;;;;;24.07;9.68;;;;;;;11.46;81.73;94540.46;1651162;85;21136;-57
2022/09/22 03:00:58;;;;;;;20.52;8.58;;;;;;;11.53;81.15;94545.66;1666605;85;21071;-56
2022/09/22 03:03:26;;;;;;;15.18;7.12;;;;;;;11.52;80.98;94548.89;1659998;85;21032;-56
2022/09/22 03:05:53;;;;;;;20.77;8.38;;;;;;;11.47;81.00;94548.88;1648108;84;21169;-56
2022/09/22 03:08:22;;;;;;;12.63;6.03;;;;;;;11.41;80.95;94554.84;1650241;85;21028;-57
2022/09/22 03:10:50;;;;;;;7.28;5.00;;;;;;;11.33;81.57;94554.97;1653979;86;21040;-57
2022/09/22 03:13:18;;;;;;;11.70;5.60;;;;;;;11.39;81.68;94553.76;1645049;86;21032;-58
2022/09/22 03:15:46;;;;;;;16.02;7.08;;;;;;;11.43;81.38;94553.78;1653691;86;21180;-57
2022/09/22 03:18:14;;;;;;;10.30;5.65;;;;;;;11.33;80.86;94546.70;1646352;85;21261;-57
2022/09/22 03:20:41;;;;;;;8.00;5.45;;;;;;;11.20;81.68;94546.06;1641720;85;21103;-56
2022/09/22 03:23:09;;;;;;;12.55;8.63;;;;;;;11.15;81.50;94551.42;1644336;86;21101;-57
2022/09/22 03:25:38;;;;;;;39.85;20.35;;;;;;;11.03;81.81;94549.55;1645760;86;21026;-58
2022/09/22 03:28:06;;;;;;;52.67;31.02;;;;;;;10.97;82.26;94553.49;1646908;86;21115;-57
2022/09/22 03:30:35;;;;;;;41.05;26.95;;;;;;;10.99;82.93;94551.68;1622725;87;21260;-57
2022/09/22 03:33:04;;;;;;;36.60;26.25;;;;;;;11.06;82.84;94549.41;1647475;86;21127;-57
2022/09/22 03:35:32;;;;;;;33.28;24.30;;;;;;;11.10;82.90;94541.77;1638077;86;21447;-56
2022/09/22 03:38:01;;;;;;;18.30;13.05;;;;;;;11.15;82.98;94548.05;1646116;86;21034;-57
2022/09/22 03:40:29;;;;;;;8.18;6.08;;;;;;;11.20;82.75;94549.44;1651675;86;21088;-56
2022/09/22 03:42:56;;;;;;;4.62;4.15;;;;;;;11.21;82.48;94553.09;1636851;85;21320;-56
2022/09/22 03:45:24;;;;;;;5.53;3.60;;;;;;;11.25;82.75;94550.20;1643140;86;21032;-57
2022/09/22 03:47:53;;;;;;;4.47;3.70;;;;;;;11.27;82.32;94559.55;1652139;86;21099;-58
2022/09/22 03:50:20;;;;;;;5.40;3.65;;;;;;;11.24;82.26;94555.56;1649505;86;21199;-57
2022/09/22 03:52:48;;;;;;;4.25;3.22;;;;;;;11.23;82.58;94563.66;1639192;85;21072;-56
2022/09/22 03:55:16;;;;;;;7.72;6.05;;;;;;;11.23;82.76;94557.56;1641732;84;21214;-57
2022/09/22 03:57:44;;;;;;;8.63;5.75;;;;;;;11.22;82.49;94560.16;1671563;85;21065;-56
2022/09/22 04:00:13;;;;;;;7.22;4.17;;;;;;;11.14;82.53;94559.53;1611471;86;21113;-57
2022/09/22 04:02:42;;;;;;;5.05;3.70;;;;;;;11.04;82.78;94568.38;1630946;86;21048;-57
2022/09/22 04:05:10;;;;;;;4.20;3.80;;;;;;;10.98;83.17;94570.16;1631954;86;21107;-56
2022/09/22 04:07:38;;;;;;;12.33;7.53;;;;;;;10.89;83.37;94566.61;1624109;86;21985;-56
2022/09/22 04:10:08;;;;;;;7.25;6.20;;;;;;;10.89;83.70;94572.12;1647354;85;21079;-56
2022/09/22 04:12:36;;;;;;;7.12;6.42;;;;;;;10.87;83.78;94565.71;1647072;85;21086;-57
2022/09/22 04:15:06;;;;;;;8.40;7.47;;;;;;;10.85;83.60;94566.77;1645118;85;21081;-57
2022/09/22 04:17:34;;;;;;;7.30;6.58;;;;;;;10.83;83.83;94571.19;1639737;85;21576;-57
2022/09/22 04:20:05;;;;;;;10.08;4.67;;;;;;;10.80;83.71;94574.84;1659308;84;21257;-56
2022/09/22 04:22:33;;;;;;;5.33;4.03;;;;;;;10.72;83.81;94572.20;1650641;85;21965;-59
2022/09/22 04:25:03;;;;;;;8.83;7.17;;;;;;;10.70;84.20;94576.64;1644080;85;21083;-58
2022/09/22 04:27:33;;;;;;;11.53;8.83;;;;;;;10.75;84.21;94580.92;1650184;85;21003;-59
2022/09/22 04:30:01;;;;;;;13.50;10.32;;;;;;;10.76;84.11;94579.10;1641509;85;21036;-59
2022/09/22 04:32:30;;;;;;;8.58;7.00;;;;;;;10.78;84.48;94591.05;1651499;85;21250;-60
2022/09/22 04:34:58;;;;;;;7.28;5.37;;;;;;;10.84;84.33;94585.10;1657029;86;20948;-58
2022/09/22 04:37:26;;;;;;;5.08;4.25;;;;;;;10.85;83.99;94583.28;1651328;85;21014;-59
2022/09/22 04:39:54;;;;;;;3.92;3.45;;;;;;;10.92;83.84;94587.13;1656915;85;20992;-59
2022/09/22 04:42:22;;;;;;;3.62;3.33;;;;;;;10.98;83.15;94589.43;1652579;86;21059;-61
2022/09/22 04:44:49;;;;;;;5.25;3.27;;;;;;;11.04;82.95;94586.27;1656900;86;21261;-58
2022/09/22 04:47:17;;;;;;;3.10;2.85;;;;;;;11.12;82.04;94580.62;1620155;85;21103;-57
2022/09/22 04:49:44;;;;;;;3.42;3.08;;;;;;;11.10;81.24;94587.19;1641483;85;21053;-60
2022/09/22 04:52:12;;;;;;;3.15;2.67;;;;;;;11.09;80.62;94591.77;1648103;86;21036;-59
2022/09/22 04:54:39;;;;;;;3.30;3.00;;;;;;;11.02;80.46;94580.42;1650694;86;21052;-60
2022/09/22 04:57:08;;;;;;;153.55;81.75;;;;;;;10.98;80.51;94584.55;1645651;86;21935;-60
2022/09/22 04:59:37;;;;;;;38.58;23.85;;;;;;;10.92;80.68;94583.00;1655809;85;21072;-60
2022/09/22 05:02:05;;;;;;;13.35;9.95;;;;;;;10.83;81.19;94579.44;1644988;85;21096;-61
2022/09/22 05:04:32;;;;;;;6.62;5.55;;;;;;;10.80;82.12;94586.61;1654531;85;21018;-58
2022/09/22 05:07:00;;;;;;;5.80;4.33;;;;;;;10.82;82.51;94593.80;1618261;86;21154;-57
2022/09/22 05:09:28;;;;;;;6.47;5.03;;;;;;;10.83;82.80;94591.83;1655683;86;21148;-56
2022/09/22 05:11:58;;;;;;;6.17;4.60;;;;;;;10.87;82.57;94594.61;1648497;85;21375;-56
2022/09/22 05:14:25;;;;;;;6.33;4.80;;;;;;;10.93;82.33;94592.78;1652054;86;21047;-55
2022/09/22 05:16:52;;;;;;;6.05;4.05;;;;;;;10.96;82.66;94595.25;1643842;85;21586;-57
2022/09/22 05:19:20;;;;;;;3.70;3.40;;;;;;;11.08;82.84;94599.27;1582521;87;21104;-57
2022/09/22 05:21:47;;;;;;;6.35;3.47;;;;;;;11.22;82.59;94597.34;1601774;88;21529;-55
2022/09/22 05:24:15;;;;;;;5.00;4.25;;;;;;;11.33;81.93;94599.03;1609018;88;21054;-59
2022/09/22 05:26:43;;;;;;;8.78;5.70;;;;;;;11.27;81.26;94606.37;1611485;88;21025;-55
2022/09/22 05:29:10;;;;;;;5.75;5.22;;;;;;;11.20;81.33;94591.49;1647968;85;21032;-57
2022/09/22 05:31:38;;;;;;;5.85;5.25;;;;;;;11.17;81.53;94596.53;1629243;86;21062;-57
2022/09/22 05:34:05;;;;;;;6.83;5.80;;;;;;;11.14;81.08;94600.20;1634052;86;21246;-57
2022/09/22 05:36:34;;;;;;;19.67;11.57;;;;;;;11.03;81.44;94601.25;1638385;85;21435;-59
2022/09/22 05:39:01;;;;;;;11.00;7.70;;;;;;;10.97;81.89;94605.05;1622762;86;21684;-60
2022/09/22 05:41:29;;;;;;;8.05;5.03;;;;;;;11.00;82.64;94601.38;1618745;88;21149;-62
2022/09/22 05:43:57;;;;;;;7.50;5.92;;;;;;;11.08;82.20;94602.62;1639861;86;20986;-60
2022/09/22 05:46:25;;;;;;;11.28;9.98;;;;;;;11.17;81.60;94605.42;1644376;85;21243;-56
2022/09/22 05:48:54;;;;;;;11.20;8.95;;;;;;;11.34;81.73;94606.08;1630037;85;21063;-57
2022/09/22 05:51:21;;;;;;;14.85;13.30;;;;;;;11.50;81.79;94597.55;1610855;86;21109;-62
2022/09/22 05:53:49;;;;;;;14.55;13.05;;;;;;;11.65;81.37;94597.75;1600700;88;21183;-63
2022/09/22 05:56:17;;;;;;;14.65;12.47;;;;;;;11.64;80.87;94602.51;1607638;87;21136;-60
2022/09/22 05:58:47;;;;;;;14.70;10.35;;;;;;;11.55;80.97;94599.69;1599599;87;21152;-62
2022/09/22 06:01:16;;;;;;;16.65;11.60;;;;;;;11.56;80.79;94598.50;1594092;89;21528;-60
2022/09/22 06:03:44;;;;;;;10.38;8.45;;;;;;;11.50;80.61;94599.55;1606584;87;21086;-58
2022/09/22 06:06:13;;;;;;;19.75;12.88;;;;;;;11.45;80.50;94596.78;1591563;87;21133;-61
2022/09/22 06:08:42;;;;;;;13.88;10.00;;;;;;;11.40;80.56;94601.52;1647454;84;21075;-60
2022/09/22 06:11:10;;;;;;;8.18;6.47;;;;;;;11.44;80.79;94609.62;1652336;84;21096;-58
2022/09/22 06:13:40;;;;;;;9.53;7.05;;;;;;;11.52;80.51;94603.98;1621031;86;21149;-59
2022/09/22 06:16:08;;;;;;;6.72;3.60;;;;;;;11.54;79.12;94610.56;1619482;85;21690;-59
2022/09/22 06:18:36;;;;;;;6.65;4.40;;;;;;;11.53;78.21;94609.02;1635740;85;21236;-56
2022/09/22 06:21:04;;;;;;;15.88;11.00;;;;;;;11.51;77.61;94607.34;1612019;86;21039;-56
2022/09/22 06:23:31;;;;;;;6.05;4.95;;;;;;;11.44;77.76;94606.27;1624796;85;21153;-59
2022/09/22 06:25:59;;;;;;;5.22;4.47;;;;;;;11.40;77.73;94618.05;1640378;85;21025;-58
2022/09/22 06:28:26;;;;;;;4.92;4.42;;;;;;;11.33;77.96;94616.94;1645258;85;21094;-58
2022/09/22 06:30:57;;;;;;;4.67;4.28;;;;;;;11.30;77.98;94612.34;1631839;85;21827;-60
2022/09/22 06:33:25;;;;;;;7.55;3.98;;;;;;;11.27;78.26;94612.47;1641245;85;21070;-58
2022/09/22 06:35:53;;;;;;;5.60;4.53;;;;;;;11.17;78.46;94620.56;1620313;85;21209;-61
2022/09/22 06:38:22;;;;;;;6.28;5.37;;;;;;;11.02;78.71;94616.83;1641486;85;21179;-55
2022/09/22 06:40:50;;;;;;;9.43;6.55;;;;;;;10.93;79.09;94618.93;1634951;84;21065;-59
2022/09/22 06:43:21;;;;;;;15.90;11.60;;;;;;;10.93;79.02;94625.81;1648310;84;21291;-60
2022/09/22 06:45:52;;;;;;;13.88;10.28;;;;;;;10.89;78.94;94623.81;1654033;85;21026;-59
2022/09/22 06:48:23;;;;;;;20.20;14.23;;;;;;;10.87;80.07;94623.50;1620169;86;22025;-57
2022/09/22 06:50:53;;;;;;;13.93;9.33;;;;;;;10.98;80.83;94622.46;1652311;84;21128;-60
2022/09/22 06:53:23;;;;;;;14.87;9.30;;;;;;;11.14;81.26;94618.09;1634123;86;21196;-60
2022/09/22 06:55:50;;;;;;;12.45;8.43;;;;;;;11.28;81.23;94621.67;1631526;85;21131;-58
2022/09/22 06:58:18;;;;;;;12.93;8.05;;;;;;;11.32;80.59;94619.53;1626800;86;21018;-58
2022/09/22 07:00:46;;;;;;;11.30;8.95;;;;;;;11.28;81.06;94623.05;1653053;85;21255;-59
2022/09/22 07:03:20;;;;;;;9.85;8.03;;;;;;;11.30;80.69;94619.23;1616538;85;21049;-64
2022/09/22 07:06:00;;;;;;;16.62;9.90;;;;;;;11.26;80.33;94623.33;1650950;85;21590;-61
2022/09/22 07:08:32;;;;;;;14.58;10.55;;;;;;;11.17;80.55;94623.31;1613273;86;21370;-63
2022/09/22 07:11:08;;;;;;;15.20;12.28;;;;;;;11.07;80.42;94625.27;1633038;85;20994;-62
2022/09/22 07:13:39;;;;;;;8.25;7.37;;;;;;;11.00;80.73;94625.53;1649727;84;21225;-62
2022/09/22 07:16:16;;;;;;;6.83;5.80;;;;;;;10.91;81.34;94628.25;1618646;85;21330;-59
2022/09/22 07:18:49;;;;;;;6.33;5.55;;;;;;;10.88;81.22;94629.16;1619011;85;21171;-64
2022/09/22 07:21:26;;;;;;;5.33;4.80;;;;;;;10.93;81.52;94620.91;1636797;86;21077;-57
2022/09/22 07:23:55;;;;;;;5.75;4.55;;;;;;;10.99;81.32;94622.63;1632989;87;21127;-58
2022/09/22 07:26:31;;;;;;;4.97;4.45;;;;;;;11.10;80.95;94620.83;1641544;86;21210;-60
2022/09/22 07:28:59;;;;;;;4.78;4.28;;;;;;;11.19;80.47;94620.87;1634869;86;20992;-59
2022/09/22 07:31:28;;;;;;;6.95;5.83;;;;;;;11.32;79.96;94618.16;1639985;85;21579;-60
2022/09/22 07:34:00;;;;;;;6.15;4.65;;;;;;;11.47;79.19;94621.88;1609198;85;21165;-60
2022/09/22 07:36:30;;;;;;;13.88;9.63;;;;;;;11.61;78.88;94618.58;1639956;86;21173;-60
2022/09/22 07:39:05;;;;;;;9.05;7.78;;;;;;;11.79;78.42;94610.34;1639674;86;21164;-59
2022/09/22 07:41:40;;;;;;;176.60;93.78;;;;;;;12.02;77.71;94613.88;1613410;85;21096;-57
2022/09/22 07:46:50;;;;;;;14.28;9.28;;;;;;;12.34;74.29;94616.02;1625590;86;21091;-57
2022/09/22 07:49:20;;;;;;;11.12;8.03;;;;;;;12.31;72.88;94612.02;1644835;85;21577;-66
2022/09/22 07:51:48;;;;;;;16.23;10.45;;;;;;;12.24;73.33;94608.95;1640415;86;21160;-63
2022/09/22 07:54:16;;;;;;;11.95;7.60;;;;;;;12.23;72.73;94608.06;1642247;84;21070;-61
2022/09/22 07:56:44;;;;;;;8.60;5.08;;;;;;;12.21;72.04;94605.75;1642959;85;21633;-60
2022/09/22 07:59:14;;;;;;;9.33;7.10;;;;;;;12.18;72.33;94613.57;1640834;85;21093;-61
2022/09/22 08:01:46;;;;;;;5.83;3.72;;;;;;;12.09;71.62;94612.17;1640664;85;21152;-62
2022/09/22 08:04:21;;;;;;;2.60;2.40;;;;;;;11.94;71.83;94606.36;1611001;85;21176;-60
2022/09/22 08:06:58;;;;;;;3.17;2.98;;;;;;;11.79;71.64;94610.34;1632156;85;21507;-58
2022/09/22 08:09:24;;;;;;;2.60;2.40;;;;;;;11.68;72.72;94597.61;1608418;87;21236;-61
2022/09/22 08:11:52;;;;;;;3.50;3.20;;;;;;;11.69;73.25;94610.16;1635713;85;21072;-60
2022/09/22 08:14:22;;;;;;;8.08;4.95;;;;;;;11.67;73.66;94608.48;1611945;87;21011;-59
2022/09/22 08:16:52;;;;;;;5.28;3.98;;;;;;;11.68;73.52;94611.38;1649141;84;21565;-60
2022/09/22 08:19:22;;;;;;;6.58;4.10;;;;;;;11.66;72.87;94611.08;1650853;83;21462;-60
2022/09/22 08:21:51;;;;;;;4.35;3.20;;;;;;;11.62;73.20;94604.95;1607936;87;21142;-58
2022/09/22 08:24:20;;;;;;;4.37;3.00;;;;;;;11.62;73.05;94598.66;1583939;87;21096;-60
2022/09/22 08:26:49;;;;;;;12.23;6.85;;;;;;;11.58;73.23;94596.08;1615097;86;21112;-60
2022/09/22 08:29:16;;;;;;;4.22;3.75;;;;;;;11.60;73.59;94599.14;1619275;86;21110;-59
2022/09/22 08:31:45;;;;;;;4.53;3.67;;;;;;;11.66;73.81;94601.44;1587973;88;21180;-59
2022/09/22 08:34:15;;;;;;;5.37;4.78;;;;;;;11.68;74.13;94604.49;1640549;84;21119;-58
2022/09/22 08:36:47;;;;;;;6.78;6.08;;;;;;;11.68;74.16;94600.98;1651585;86;21070;-61
2022/09/22 08:39:15;;;;;;;4.95;4.03;;;;;;;11.67;74.24;94608.48;1622912;86;21075;-60
2022/09/22 08:42:08;;;;;;;4.05;3.75;;;;;;;11.64;74.74;94606.64;1649400;84;21222;-59
2022/09/22 08:44:36;;;;;;;4.15;3.72;;;;;;;11.65;74.85;94611.52;1623045;84;21316;-60
2022/09/22 08:47:04;;;;;;;3.85;3.45;;;;;;;11.75;75.28;94601.43;1623065;86;21085;-58
2022/09/22 08:52:47;;;;;;;4.10;3.42;;;;;;;12.00;75.43;94608.66;1640251;84;21146;-59
2022/09/22 08:55:21;;;;;;;4.30;3.90;;;;;;;12.17;75.56;94605.74;1585397;87;21202;-61
2022/09/22 08:58:08;;;;;;;2.87;2.67;;;;;;;12.22;74.08;94608.66;1633643;84;21134;-59
2022/09/22 09:00:43;;;;;;;2.50;2.30;;;;;;;12.24;72.98;94607.58;1584241;87;21075;-59
2022/09/22 09:03:43;;;;;;;2.33;2.17;;;;;;;12.31;72.73;94599.02;1606237;87;21189;-61
2022/09/22 09:06:33;;;;;;;2.72;2.52;;;;;;;12.42;71.39;94592.39;1623589;85;21011;-59
2022/09/22 09:09:25;;;;;;;2.27;2.08;;;;;;;12.60;71.52;94590.37;1620960;86;21119;-63
2022/09/22 09:12:00;;;;;;;;;;;;;;;12.81;71.69;94584.47;1624886;86;21204;-61
2022/09/22 09:14:49;;;;;;;2.30;2.10;;;;;;;13.01;71.75;94586.89;1580518;87;20245;-63
2022/09/22 09:17:30;;;;;;;2.50;2.30;;;;;;;13.13;71.28;94587.92;1596142;87;21087;-59
2022/09/22 09:20:26;;;;;;;2.22;1.85;;;;;;;13.22;71.23;94587.86;1611493;86;21178;-60
2022/09/22 09:22:55;;;;;;;2.05;1.92;;;;;;;13.26;70.47;94589.86;1662831;84;21147;-59
2022/09/22 09:25:35;;;;;;;2.10;1.90;;;;;;;13.34;70.10;94593.80;1651178;84;20990;-62
2022/09/22 09:28:06;;;;;;;1.98;1.87;;;;;;;13.38;70.02;94589.64;1651896;84;21585;-59
2022/09/22 09:30:50;;;;;;;1.77;1.67;;;;;;;13.48;70.62;94590.36;1627051;85;21096;-61
2022/09/22 09:33:30;;;;;;;1.40;1.30;;;;;;;13.54;67.49;94595.38;1586426;88;20993;-61
2022/09/22 09:35:59;;;;;;;3.35;2.67;;;;;;;13.50;67.05;94591.43;1628912;86;21273;-58
2022/09/22 09:38:30;;;;;;;2.35;2.12;;;;;;;13.51;67.01;94592.17;1636293;85;21551;-59
2022/09/22 09:41:14;;;;;;;2.65;2.45;;;;;;;13.51;66.21;94586.05;1645629;84;21427;-62
2022/09/22 09:43:44;;;;;;;4.05;3.70;;;;;;;13.53;66.95;94578.66;1631264;84;21129;-58
2022/09/22 09:46:43;;;;;;;6.12;3.85;;;;;;;13.63;64.51;94578.12;1619458;85;21070;-61
2022/09/22 09:49:14;;;;;;;3.60;3.17;;;;;;;13.90;64.69;94575.80;1647285;84;21266;-61
2022/09/22 09:51:48;;;;;;;6.45;5.78;;;;;;;14.48;61.58;94578.84;1637808;85;21072;-60
2022/09/22 09:54:16;;;;;;;3.02;2.83;;;;;;;14.79;62.05;94580.54;1642798;85;21093;-60
2022/09/22 09:57:08;;;;;;;2.12;2.02;;;;;;;15.16;59.99;94583.04;1647348;84;21034;-61
2022/09/22 10:02:32;;;;;;;2.40;2.20;;;;;;;15.47;58.38;94580.53;1651357;85;21170;-60
2022/09/22 10:05:16;;;;;;;1.77;1.67;;;;;;;15.74;56.57;94584.94;1611146;87;21201;-63
2022/09/22 10:07:50;;;;;;;5.25;4.75;;;;;;;15.96;55.89;94586.61;1662952;84;20919;-64
2022/09/22 10:10:38;;;;;;;3.37;2.08;;;;;;;16.14;55.99;94597.43;1635257;85;21436;-62
2022/09/22 10:13:11;;;;;;;1.72;1.20;;;;;;;16.17;55.18;94592.29;1645917;87;21067;-61
2022/09/22 10:15:40;;;;;;;2.25;1.40;;;;;;;16.01;57.00;94586.69;1632030;85;21913;-62
2022/09/22 10:18:38;;;;;;;1.92;1.37;;;;;;;15.91;57.83;94590.83;1642480;85;21139;-62
2022/09/22 10:21:22;;;;;;;1.20;1.10;;;;;;;15.60;58.56;94596.83;1629438;84;21085;-63
2022/09/22 10:23:52;;;;;;;2.30;1.50;;;;;;;15.08;60.05;94597.16;1638422;84;21561;-62
2022/09/22 10:26:31;;;;;;;1.72;1.30;;;;;;;14.84;61.09;94599.25;1629034;84;21084;-64
2022/09/22 10:29:19;;;;;;;2.05;1.47;;;;;;;14.95;61.52;94601.44;1619466;87;21795;-63
2022/09/22 10:32:14;;;;;;;4.33;1.92;;;;;;;14.84;62.44;94597.87;1619311;84;21120;-62
2022/09/22 10:34:49;;;;;;;1.77;1.47;;;;;;;14.67;62.77;94596.81;1645948;85;21079;-62
2022/09/22 10:37:22;;;;;;;4.78;1.80;;;;;;;14.30;62.50;94599.02;1618205;86;21059;-63
2022/09/22 10:39:53;;;;;;;2.83;2.00;;;;;;;13.86;63.72;94591.20;1610924;87;21233;-63
2022/09/22 10:42:42;;;;;;;3.52;1.80;;;;;;;13.58;65.53;94595.36;1627042;85;21221;-62
2022/09/22 10:45:15;;;;;;;2.67;2.30;;;;;;;13.42;65.92;94596.39;1627366;84;21090;-61
2022/09/22 10:48:01;;;;;;;3.62;3.33;;;;;;;13.23;68.01;94592.19;1637503;86;21090;-63
2022/09/22 10:50:35;;;;;;;3.02;2.45;;;;;;;13.60;69.64;94593.52;1634554;85;21206;-63
2022/09/22 10:53:32;;;;;;;4.50;3.15;;;;;;;14.65;71.01;94584.70;1634956;85;21127;-60
2022/09/22 10:56:17;;;;;;;2.08;1.85;;;;;;;15.93;67.38;94577.23;1641940;84;21266;-64
2022/09/22 10:59:19;;;;;;;1.87;1.70;;;;;;;17.03;60.12;94572.27;1648673;85;21193;-64
2022/09/22 11:02:01;;;;;;;2.67;2.15;;;;;;;17.05;57.39;94566.20;1595163;88;21015;-63
2022/09/22 11:05:02;;;;;;;3.00;2.17;;;;;;;16.64;58.42;94571.16;1628550;85;21062;-64
2022/09/22 11:13:56;;;;;;;2.55;1.77;;;;;;;15.78;60.87;94559.91;1629891;86;21010;-62
2022/09/22 11:16:41;;;;;;;3.20;2.47;;;;;;;15.79;61.00;94569.76;1622231;85;21076;-63
2022/09/22 11:19:19;;;;;;;4.45;1.50;;;;;;;15.62;60.36;94569.38;1636655;84;21103;-60
2022/09/22 11:22:26;;;;;;;1.90;1.50;;;;;;;15.42;57.34;94577.06;1625262;86;21084;-60
2022/09/22 11:25:21;;;;;;;1.55;1.45;;;;;;;15.00;56.60;94583.53;1629695;85;21160;-63
2022/09/22 11:28:49;;;;;;;1.45;1.27;;;;;;;14.37;58.43;94584.80;1626918;85;21169;-60
2022/09/22 11:31:43;;;;;;;1.60;1.50;;;;;;;13.76;59.79;94584.19;1658829;84;21069;-62
2022/09/22 11:34:22;;;;;;;1.57;1.47;;;;;;;13.22;62.23;94592.01;1636212;85;21053;-60
2022/09/22 11:37:25;;;;;;;1.62;1.47;;;;;;;12.94;63.50;94587.21;1644474;84;21078;-62
2022/09/22 11:40:16;;;;;;;1.60;1.50;;;;;;;12.71;63.27;94589.89;1620244;84;21450;-61
2022/09/22 11:43:27;;;;;;;1.82;1.50;;;;;;;12.56;64.53;94587.62;1633862;86;21127;-62
2022/09/22 11:46:18;;;;;;;1.82;1.72;;;;;;;12.44;65.28;94588.55;1641294;84;21120;-62
2022/09/22 11:49:31;;;;;;;1.70;1.60;;;;;;;12.32;66.46;94586.75;1633406;85;21187;-62
2022/09/22 11:52:16;;;;;;;2.55;1.70;;;;;;;12.18;66.22;94584.61;1652608;84;21182;-58
2022/09/22 11:54:58;;;;;;;1.87;1.77;;;;;;;12.12;67.07;94594.70;1639785;84;22033;-60
2022/09/22 11:57:27;;;;;;;6.35;3.90;;;;;;;12.06;66.93;94588.28;1644220;84;21032;-61
2022/09/22 12:00:04;;;;;;;2.42;2.17;;;;;;;11.95;67.18;94586.62;1638985;83;21174;-62
2022/09/22 12:02:45;;;;;;;2.10;2.00;;;;;;;11.97;66.83;94584.76;1650357;84;21058;-61
2022/09/22 12:05:51;;;;;;;3.47;2.20;;;;;;;12.06;67.61;94584.14;1642339;85;21679;-62
2022/09/22 12:08:25;;;;;;;2.27;2.08;;;;;;;12.16;66.95;94577.41;1633234;85;21169;-60
2022/09/22 12:10:54;;;;;;;3.72;3.42;;;;;;;12.28;65.74;94577.84;1645121;85;21140;-63
2022/09/22 12:13:27;;;;;;;5.28;2.30;;;;;;;12.44;66.28;94571.25;1629243;85;21530;-64
2022/09/22 12:16:32;;;;;;;3.00;2.58;;;;;;;12.57;66.23;94575.34;1649454;84;21089;-72
2022/09/22 12:19:14;;;;;;;3.37;3.08;;;;;;;12.64;64.99;94574.41;1649522;84;21438;-68